Time;durP1;ratioP1;P1;durP2;ratioP2;P2;SDS_P1;SDS_P2;PMS_P1;PMS_P2;Temp;Humidity;BMP_temperature;BMP_pressure;BME280_temperature;BME280_humidity;BME280_pressure;Samples;Min_cycle;Max_cycle;Signal;HPM_P1;HPM_P2
2021/06/10 00:02:32;;;;;;;10.02;5.35;;;18.40;99.90;;;;;;10286164;28;20082;-59
2021/06/10 00:07:34;;;;;;;9.68;5.80;;;18.30;99.90;;;;;;10279802;28;20691;-60
2021/06/10 00:12:36;;;;;;;9.57;6.03;;;18.40;99.90;;;;;;10282330;28;20081;-60
2021/06/10 00:17:38;;;;;;;11.13;5.90;;;18.30;99.90;;;;;;10296874;28;20124;-59
2021/06/10 00:22:40;;;;;;;11.88;6.47;;;18.30;99.90;;;;;;10306686;28;20051;-59
2021/06/10 00:27:42;;;;;;;12.25;5.90;;;18.10;99.90;;;;;;10302753;28;20065;-59
2021/06/10 00:32:46;;;;;;;10.15;7.00;;;18.10;99.90;;;;;;10288660;28;20054;-59
2021/06/10 00:37:49;;;;;;;12.02;5.53;;;18.00;99.90;;;;;;10302469;28;20069;-59
2021/06/10 00:42:51;;;;;;;11.38;6.22;;;18.00;99.90;;;;;;10288863;28;20091;-59
2021/06/10 00:47:53;;;;;;;8.70;6.18;;;17.90;99.90;;;;;;10294058;28;20106;-59
2021/06/10 00:52:56;;;;;;;10.23;6.45;;;17.80;99.90;;;;;;10297932;28;20065;-59
2021/06/10 00:57:57;;;;;;;9.02;6.20;;;17.80;99.90;;;;;;10293898;28;20074;-58
2021/06/10 01:02:59;;;;;;;11.05;7.03;;;17.70;99.90;;;;;;10311831;28;20078;-59
2021/06/10 01:08:27;;;;;;;9.60;7.50;;;17.70;99.90;;;;;;10300633;28;20101;-59
2021/06/10 01:14:02;;;;;;;10.65;7.28;;;17.70;99.90;;;;;;10289469;28;20055;-59
2021/06/10 01:19:37;;;;;;;13.70;6.70;;;17.70;99.90;;;;;;10253971;28;20544;-59
2021/06/10 01:25:06;;;;;;;8.57;7.05;;;17.60;99.90;;;;;;10255431;28;20082;-59
2021/06/10 01:30:12;;;;;;;13.90;7.07;;;17.60;99.90;;;;;;10250915;28;20639;-59
2021/06/10 01:35:16;;;;;;;9.87;6.73;;;17.50;99.90;;;;;;10289817;28;20127;-60
2021/06/10 01:40:20;;;;;;;10.85;6.72;;;17.30;99.90;;;;;;10302088;28;20074;-60
2021/06/10 01:45:22;;;;;;;8.73;6.97;;;17.30;99.90;;;;;;10289649;28;20054;-60
2021/06/10 01:50:25;;;;;;;13.02;6.97;;;17.20;99.90;;;;;;10286020;28;20109;-61
2021/06/10 01:55:28;;;;;;;11.13;6.95;;;17.10;99.90;;;;;;10302191;28;20588;-60
2021/06/10 02:00:30;;;;;;;9.93;7.03;;;17.10;99.90;;;;;;10274086;28;20115;-59
2021/06/10 02:05:34;;;;;;;8.98;6.50;;;17.00;99.90;;;;;;10267895;28;20070;-59
2021/06/10 02:10:38;;;;;;;8.90;6.53;;;16.90;99.90;;;;;;10303806;28;20082;-60
2021/06/10 02:15:42;;;;;;;20.67;7.80;;;16.90;99.90;;;;;;10295175;28;20149;-60
2021/06/10 02:20:44;;;;;;;8.77;6.05;;;16.90;99.90;;;;;;10291008;28;20591;-59
2021/06/10 02:25:46;;;;;;;7.70;6.25;;;16.90;99.90;;;;;;10278805;28;20563;-59
2021/06/10 02:30:47;;;;;;;9.80;5.75;;;16.90;99.90;;;;;;10304857;28;20054;-59
2021/06/10 02:35:49;;;;;;;10.75;6.05;;;16.80;99.90;;;;;;10294053;28;20073;-59
2021/06/10 02:40:54;;;;;;;10.07;6.18;;;16.90;99.90;;;;;;10291846;28;20097;-59
2021/06/10 02:45:56;;;;;;;11.02;7.22;;;16.80;99.90;;;;;;10287123;28;20129;-59
2021/06/10 02:50:59;;;;;;;14.80;7.57;;;16.50;99.90;;;;;;10281163;28;20093;-59
2021/06/10 02:56:03;;;;;;;18.38;8.10;;;16.40;99.90;;;;;;10286817;28;20066;-59
2021/06/10 03:01:05;;;;;;;16.88;8.23;;;16.40;99.90;;;;;;10291677;28;20341;-59
2021/06/10 03:06:08;;;;;;;22.65;8.38;;;16.40;99.90;;;;;;10276705;28;20389;-59
2021/06/10 03:11:10;;;;;;;13.43;8.20;;;16.40;99.90;;;;;;10290654;28;20047;-58
2021/06/10 03:16:13;;;;;;;15.07;7.82;;;16.40;99.90;;;;;;10300726;28;20097;-62
2021/06/10 03:21:17;;;;;;;8.43;6.95;;;16.30;99.90;;;;;;10283133;28;20046;-63
2021/06/10 03:26:20;;;;;;;10.15;6.65;;;16.20;99.90;;;;;;10298526;28;20140;-62
2021/06/10 03:31:23;;;;;;;10.05;6.80;;;16.30;99.90;;;;;;10275122;28;20050;-62
2021/06/10 03:36:27;;;;;;;11.48;6.60;;;16.20;99.90;;;;;;10281796;28;20530;-63
2021/06/10 03:41:30;;;;;;;14.48;6.60;;;16.20;99.90;;;;;;10294009;28;20070;-63
2021/06/10 03:46:32;;;;;;;7.90;6.00;;;16.20;99.90;;;;;;10278795;28;20114;-64
2021/06/10 03:51:34;;;;;;;10.68;6.40;;;16.20;99.90;;;;;;10284021;28;20081;-64
2021/06/10 03:56:35;;;;;;;9.65;6.80;;;16.20;99.90;;;;;;10296318;28;20109;-64
2021/06/10 04:01:37;;;;;;;13.50;6.72;;;16.20;99.90;;;;;;10288758;28;20213;-64
2021/06/10 04:06:39;;;;;;;9.57;6.93;;;16.20;99.90;;;;;;10279364;28;20050;-64
2021/06/10 04:11:40;;;;;;;14.20;6.82;;;16.30;99.90;;;;;;10290094;28;20081;-64
2021/06/10 04:16:42;;;;;;;12.50;6.20;;;16.30;99.90;;;;;;10286959;28;20060;-64
2021/06/10 04:21:44;;;;;;;11.70;7.35;;;16.50;99.90;;;;;;10300410;28;20042;-64
2021/06/10 04:26:46;;;;;;;8.45;6.47;;;16.50;99.90;;;;;;10295156;28;20081;-64
2021/06/10 04:31:48;;;;;;;12.68;7.32;;;16.60;99.90;;;;;;10297525;28;20058;-64
2021/06/10 04:36:50;;;;;;;9.52;5.65;;;16.60;99.90;;;;;;10275546;28;20648;-65
2021/06/10 04:41:51;;;;;;;8.88;6.70;;;16.70;99.90;;;;;;10283546;28;20052;-65
2021/06/10 04:46:53;;;;;;;9.93;6.15;;;16.80;99.90;;;;;;10283020;28;20074;-64
2021/06/10 04:51:55;;;;;;;8.25;6.60;;;16.90;99.90;;;;;;10286549;28;20078;-64
2021/06/10 04:56:56;;;;;;;12.02;6.72;;;17.00;99.90;;;;;;10269054;28;20104;-70
2021/06/10 05:01:58;;;;;;;10.02;6.60;;;17.00;99.90;;;;;;10280182;28;20101;-67
2021/06/10 05:07:00;;;;;;;21.65;6.63;;;17.30;99.90;;;;;;10294686;28;20074;-64
2021/06/10 05:12:02;;;;;;;8.50;6.10;;;17.40;99.90;;;;;;10300214;28;20121;-66
2021/06/10 05:17:04;;;;;;;7.55;6.15;;;17.50;99.90;;;;;;10292434;28;20042;-66
2021/06/10 05:22:06;;;;;;;13.18;6.15;;;17.60;99.90;;;;;;10299439;28;20078;-66
2021/06/10 05:27:09;;;;;;;10.80;6.53;;;17.70;99.90;;;;;;10290366;28;20050;-66
2021/06/10 05:32:11;;;;;;;9.88;6.53;;;17.80;99.90;;;;;;10284380;28;20130;-66
2021/06/10 05:37:13;;;;;;;10.50;7.15;;;18.00;99.90;;;;;;10304139;28;20070;-65
2021/06/10 05:42:15;;;;;;;13.07;7.43;;;18.10;99.90;;;;;;10285536;28;20101;-65
2021/06/10 05:47:17;;;;;;;13.35;5.95;;;18.10;99.90;;;;;;10294180;28;20086;-65
2021/06/10 05:52:21;;;;;;;7.78;6.25;;;18.30;99.90;;;;;;10311405;28;20109;-66
2021/06/10 05:57:23;;;;;;;8.45;6.30;;;18.30;99.90;;;;;;10305584;28;20140;-65
2021/06/10 06:02:24;;;;;;;7.80;5.95;;;18.30;99.90;;;;;;10276542;28;20050;-66
2021/06/10 06:07:26;;;;;;;7.80;6.00;;;18.30;99.90;;;;;;10287103;28;20125;-66
2021/06/10 06:12:28;;;;;;;8.95;6.10;;;18.30;99.90;;;;;;10283752;28;20109;-66
2021/06/10 06:17:30;;;;;;;7.38;5.78;;;18.60;99.90;;;;;;10286641;28;20089;-66
2021/06/10 06:22:31;;;;;;;10.75;6.55;;;18.80;99.90;;;;;;10277178;28;20355;-67
2021/06/10 06:27:33;;;;;;;10.82;7.45;;;18.80;99.90;;;;;;10288571;28;20055;-65
2021/06/10 06:32:36;;;;;;;8.18;6.68;;;18.60;99.90;;;;;;10286127;28;20047;-64
2021/06/10 06:37:38;;;;;;;11.50;6.88;;;18.90;99.90;;;;;;10289861;28;20145;-65
2021/06/10 06:42:40;;;;;;;10.00;7.07;;;18.90;99.90;;;;;;10285648;28;20043;-65
2021/06/10 06:47:41;;;;;;;8.40;6.57;;;19.20;99.90;;;;;;10284277;28;20047;-65
2021/06/10 06:52:43;;;;;;;9.85;7.50;;;19.20;99.90;;;;;;10286901;28;20042;-65
2021/06/10 06:57:45;;;;;;;8.93;7.20;;;19.40;99.90;;;;;;10276237;28;20165;-65
2021/06/10 07:02:47;;;;;;;11.55;6.75;;;19.40;99.90;;;;;;10278370;28;20070;-65
2021/06/10 07:07:48;;;;;;;9.88;5.90;;;19.70;99.90;;;;;;10305704;28;20067;-65
2021/06/10 07:12:50;;;;;;;13.50;7.75;;;20.00;99.90;;;;;;10322520;28;20064;-65
2021/06/10 07:17:52;;;;;;;18.20;8.10;;;19.90;99.90;;;;;;10289803;28;20761;-66
2021/06/10 07:22:55;;;;;;;10.60;8.32;;;19.90;99.90;;;;;;10299189;28;20043;-66
2021/06/10 07:27:56;;;;;;;8.20;6.82;;;20.30;99.90;;;;;;10282699;28;20481;-66
2021/06/10 07:32:58;;;;;;;10.18;6.88;;;20.50;99.90;;;;;;10296411;28;20062;-66
2021/06/10 07:38:02;;;;;;;11.18;7.78;;;20.80;99.90;;;;;;10271756;28;20086;-66
2021/06/10 07:43:04;;;;;;;10.48;7.25;;;21.00;99.90;;;;;;10274663;28;20500;-64
2021/06/10 07:48:07;;;;;;;11.38;7.15;;;21.10;99.90;;;;;;10295125;28;20134;-64
2021/06/10 07:53:09;;;;;;;8.40;7.07;;;21.50;99.90;;;;;;10271864;28;20055;-64
2021/06/10 07:58:14;;;;;;;10.70;8.35;;;21.40;99.90;;;;;;10310875;28;20034;-64
2021/06/10 08:03:16;;;;;;;9.68;7.45;;;21.60;99.90;;;;;;10280449;28;20050;-64
2021/06/10 08:08:18;;;;;;;9.38;6.70;;;22.00;99.90;;;;;;10300864;28;20125;-64
2021/06/10 08:13:24;;;;;;;11.20;8.15;;;22.10;99.90;;;;;;10285085;28;20108;-64
2021/06/10 08:18:28;;;;;;;10.10;6.95;;;22.30;99.90;;;;;;10275872;28;20086;-64
2021/06/10 08:23:30;;;;;;;8.50;6.32;;;22.40;99.90;;;;;;10302472;28;20078;-65
2021/06/10 08:28:33;;;;;;;8.02;7.05;;;22.80;99.90;;;;;;10271807;28;20066;-65
2021/06/10 08:33:36;;;;;;;8.02;7.18;;;22.90;99.90;;;;;;10289749;28;20066;-65
2021/06/10 08:38:38;;;;;;;10.43;6.90;;;23.10;99.90;;;;;;10289155;28;20047;-65
2021/06/10 08:43:41;;;;;;;8.95;7.30;;;23.20;99.90;;;;;;10308230;28;20138;-65
2021/06/10 08:48:44;;;;;;;11.40;7.75;;;23.40;99.90;;;;;;10291447;28;20085;-65
2021/06/10 08:53:46;;;;;;;10.10;7.78;;;23.50;99.90;;;;;;10290070;28;20051;-64
2021/06/10 08:58:47;;;;;;;9.85;8.40;;;23.60;99.90;;;;;;10280326;28;20046;-64
2021/06/10 09:03:49;;;;;;;11.00;9.60;;;23.70;99.20;;;;;;10304745;28;20450;-65
2021/06/10 09:08:58;;;;;;;8.20;7.28;;;23.70;99.70;;;;;;10359945;28;20049;-65
2021/06/10 09:14:09;;;;;;;8.90;7.18;;;24.20;99.90;;;;;;10352786;28;20042;-65
2021/06/10 09:19:16;;;;;;;10.10;7.75;;;24.60;98.20;;;;;;10348311;28;20050;-66
2021/06/10 09:24:25;;;;;;;9.45;7.53;;;24.70;97.50;;;;;;10362843;28;20474;-65
2021/06/10 09:29:41;;;;;;;11.45;7.93;;;24.70;97.80;;;;;;10361120;28;20061;-65
2021/06/10 09:35:01;;;;;;;9.13;7.37;;;25.10;95.70;;;;;;10364698;28;20052;-65
2021/06/10 09:40:08;;;;;;;10.52;7.47;;;25.10;93.60;;;;;;10309549;28;20046;-65
2021/06/10 09:45:18;;;;;;;9.27;6.93;;;25.40;90.90;;;;;;10361346;28;20064;-65
2021/06/10 09:50:24;;;;;;;10.40;6.93;;;25.60;91.20;;;;;;10355305;28;20048;-65
2021/06/10 09:55:41;;;;;;;7.95;7.15;;;25.80;85.60;;;;;;10352194;28;20082;-65
2021/06/10 10:00:46;;;;;;;8.48;6.25;;;26.10;84.20;;;;;;10359986;28;20070;-66
2021/06/10 10:05:48;;;;;;;7.68;6.88;;;26.30;83.60;;;;;;10346455;28;20054;-65
2021/06/10 10:10:50;;;;;;;10.38;6.97;;;26.50;83.10;;;;;;10358184;28;20054;-65
2021/06/10 10:15:53;;;;;;;7.20;5.88;;;26.50;80.40;;;;;;10362398;28;20053;-65
2021/06/10 10:21:04;;;;;;;7.90;7.10;;;26.60;78.10;;;;;;10354305;28;20050;-64
2021/06/10 10:26:07;;;;;;;10.05;5.40;;;26.60;79.30;;;;;;10360497;28;20046;-64
2021/06/10 10:31:11;;;;;;;7.28;5.95;;;26.90;80.10;;;;;;10357943;28;20108;-64
2021/06/10 10:36:26;;;;;;;6.93;5.60;;;27.30;75.90;;;;;;10360401;28;20042;-64
2021/06/10 10:41:29;;;;;;;6.32;4.25;;;27.40;74.80;;;;;;10358215;28;20065;-64
2021/06/10 10:46:31;;;;;;;3.78;3.47;;;27.60;69.20;;;;;;10355209;28;20132;-64
2021/06/10 10:51:35;;;;;;;5.60;4.07;;;28.00;63.90;;;;;;10345743;28;20890;-64
2021/06/10 10:56:39;;;;;;;5.33;4.23;;;27.70;63.10;;;;;;10351889;28;20046;-64
2021/06/10 11:01:42;;;;;;;6.68;5.97;;;27.60;67.30;;;;;;10357370;28;20073;-64
2021/06/10 11:06:44;;;;;;;6.75;5.90;;;27.90;63.80;;;;;;10349824;28;20057;-64
2021/06/10 11:11:59;;;;;;;7.78;6.47;;;27.80;63.10;;;;;;10369399;28;20053;-64
2021/06/10 11:17:16;;;;;;;7.77;5.87;;;27.70;65.00;;;;;;10353262;28;20057;-64
2021/06/10 11:22:31;;;;;;;9.35;6.75;;;27.70;62.10;;;;;;10359143;28;20092;-64
2021/06/10 11:27:44;;;;;;;7.88;5.95;;;28.10;60.70;;;;;;10299607;28;20481;-64
2021/06/10 11:33:00;;;;;;;8.20;6.57;;;28.40;64.30;;;;;;10350865;28;20124;-64
2021/06/10 11:38:03;;;;;;;;;;;28.80;62.90;;;;;;10305034;28;20050;-66
2021/06/10 11:43:06;;;;;;;9.38;6.90;;;28.80;61.30;;;;;;10358480;28;19971;-65
2021/06/10 11:48:09;;;;;;;8.18;6.70;;;28.30;60.60;;;;;;10355374;28;20057;-66
2021/06/10 11:53:18;;;;;;;5.97;5.45;;;28.30;61.30;;;;;;10346725;28;20155;-65
2021/06/10 11:58:19;;;;;;;6.00;5.40;;;28.60;61.50;;;;;;10355867;28;20050;-65
2021/06/10 12:03:22;;;;;;;7.15;5.90;;;28.90;60.50;;;;;;10355383;28;20123;-64
2021/06/10 12:08:31;;;;;;;8.00;5.20;;;28.80;59.20;;;;;;10334195;28;20128;-64
2021/06/10 12:13:38;;;;;;;8.75;5.88;;;28.60;60.10;;;;;;10349868;28;20050;-64
2021/06/10 12:18:42;;;;;;;5.70;5.20;;;28.60;61.60;;;;;;10351781;28;20128;-64
2021/06/10 12:23:49;;;;;;;5.50;4.85;;;29.60;60.50;;;;;;10339172;28;20518;-64
2021/06/10 12:28:55;;;;;;;7.10;6.03;;;29.30;61.10;;;;;;10356016;28;20483;-64
2021/06/10 12:33:59;;;;;;;5.38;4.65;;;29.60;58.90;;;;;;10349854;28;20069;-64
2021/06/10 12:39:02;;;;;;;5.88;4.82;;;29.80;58.40;;;;;;10352296;28;20167;-64
2021/06/10 12:44:09;;;;;;;5.97;4.70;;;29.90;56.90;;;;;;10347615;28;20404;-64
2021/06/10 12:49:11;;;;;;;6.80;5.13;;;30.30;56.10;;;;;;10353787;28;20073;-64
2021/06/10 12:54:18;;;;;;;6.03;4.70;;;30.60;57.40;;;;;;10353126;28;20077;-64
2021/06/10 12:59:35;;;;;;;5.70;5.18;;;30.60;56.80;;;;;;10356950;28;20700;-64
2021/06/10 13:04:44;;;;;;;4.97;4.57;;;29.70;54.00;;;;;;10304246;28;20131;-65
2021/06/10 13:09:46;;;;;;;5.57;4.57;;;30.60;56.70;;;;;;10355196;28;20129;-60
2021/06/10 13:15:27;;;;;;;5.47;4.78;;;30.30;55.00;;;;;;10359209;28;20053;-65
2021/06/10 13:20:59;;;;;;;7.60;4.72;;;31.00;56.10;;;;;;10254120;28;20566;-62
2021/06/10 13:26:12;;;;;;;6.63;4.93;;;30.80;53.10;;;;;;10300353;28;20058;-62
2021/06/10 13:31:26;;;;;;;4.70;4.30;;;31.30;53.20;;;;;;10351311;28;20050;-63
2021/06/10 13:36:29;;;;;;;;;;;31.90;51.20;;;;;;10365065;28;20065;-63
2021/06/10 13:41:32;;;;;;;5.15;3.28;;;31.90;50.60;;;;;;10363578;28;20090;-65
2021/06/10 13:46:35;;;;;;;4.38;3.63;;;32.40;48.60;;;;;;10359871;28;20078;-63
2021/06/10 13:51:36;;;;;;;4.18;3.78;;;31.90;47.10;;;;;;10358939;28;20401;-62
2021/06/10 13:56:38;;;;;;;4.15;3.70;;;31.90;47.70;;;;;;10360708;28;20413;-63
2021/06/10 14:01:40;;;;;;;5.40;2.70;;;32.60;49.90;;;;;;10352468;28;20065;-62
2021/06/10 14:06:41;;;;;;;3.90;2.47;;;32.70;47.40;;;;;;10360613;28;20064;-62
2021/06/10 14:11:43;;;;;;;3.63;2.83;;;32.10;45.10;;;;;;10354902;28;20468;-62
2021/06/10 14:16:45;;;;;;;3.30;3.00;;;31.10;47.20;;;;;;10364076;28;20508;-62
2021/06/10 14:21:48;;;;;;;4.35;3.85;;;31.20;47.40;;;;;;10355999;28;20046;-62
2021/06/10 14:26:49;;;;;;;5.47;4.28;;;31.40;47.20;;;;;;10361516;28;20057;-62
2021/06/10 14:36:54;;;;;;;4.55;3.13;;;31.10;48.90;;;;;;10362271;28;20106;-62
2021/06/10 14:41:56;;;;;;;13.70;3.65;;;31.70;47.10;;;;;;10356275;28;20049;-63
2021/06/10 14:46:58;;;;;;;5.07;3.13;;;31.90;47.60;;;;;;10355404;28;20057;-62
2021/06/10 14:52:00;;;;;;;2.92;2.65;;;31.40;45.80;;;;;;10352196;28;20046;-62
2021/06/10 14:57:03;;;;;;;2.75;2.53;;;31.70;44.90;;;;;;10354659;28;20053;-62
2021/06/10 15:02:05;;;;;;;6.20;3.00;;;31.70;46.40;;;;;;10357933;28;20122;-62
2021/06/10 15:07:06;;;;;;;4.35;2.55;;;31.90;47.20;;;;;;10353043;28;20074;-61
2021/06/10 15:12:08;;;;;;;3.63;2.67;;;31.60;46.70;;;;;;10353208;28;20097;-61
2021/06/10 15:17:10;;;;;;;2.55;2.35;;;31.40;46.40;;;;;;10351492;28;20109;-61
2021/06/10 15:22:12;;;;;;;2.95;2.08;;;31.60;45.60;;;;;;10358022;28;20049;-60
2021/06/10 15:27:14;;;;;;;2.20;2.05;;;31.50;46.30;;;;;;10351099;28;20639;-61
2021/06/10 15:32:15;;;;;;;2.97;2.40;;;32.20;46.40;;;;;;10353667;28;20432;-61
2021/06/10 15:37:17;;;;;;;6.03;2.25;;;31.90;44.60;;;;;;10362913;28;20131;-61
2021/06/10 15:42:19;;;;;;;1.75;1.48;;;31.60;45.20;;;;;;10361671;28;20042;-61
2021/06/10 15:47:24;;;;;;;4.25;2.10;;;30.80;46.40;;;;;;10345052;28;20045;-62
2021/06/10 15:52:26;;;;;;;2.35;1.98;;;31.40;46.50;;;;;;10360149;28;20519;-64
2021/06/10 15:57:28;;;;;;;1.98;1.80;;;31.90;46.30;;;;;;10355406;28;20125;-65
2021/06/10 16:02:47;;;;;;;5.28;1.70;;;31.70;45.60;;;;;;10357656;28;20052;-66
2021/06/10 16:07:51;;;;;;;1.77;1.67;;;31.70;46.40;;;;;;10357302;28;20060;-69
2021/06/10 16:12:52;;;;;;;3.35;1.80;;;30.90;46.10;;;;;;10343606;28;20049;-70
2021/06/10 16:17:55;;;;;;;5.30;2.00;;;31.10;45.30;;;;;;10349597;28;20111;-71
2021/06/10 16:22:57;;;;;;;4.15;2.08;;;31.60;44.70;;;;;;10353617;28;20053;-71
2021/06/10 16:27:58;;;;;;;6.15;1.85;;;30.80;45.00;;;;;;10358019;28;20046;-69
2021/06/10 16:33:14;;;;;;;2.13;1.73;;;30.60;46.30;;;;;;10360590;28;20488;-71
2021/06/10 16:38:16;;;;;;;3.88;1.20;;;31.20;45.10;;;;;;10342513;28;20080;-68
2021/06/10 16:43:17;;;;;;;3.55;1.40;;;30.30;45.30;;;;;;10355473;28;20054;-69
2021/06/10 16:48:19;;;;;;;1.58;1.40;;;30.90;45.70;;;;;;10353005;28;20087;-70
2021/06/10 16:53:21;;;;;;;3.08;1.73;;;31.00;45.00;;;;;;10337829;28;20467;-69
2021/06/10 16:58:23;;;;;;;2.03;1.20;;;31.10;43.70;;;;;;10351620;28;20107;-67
2021/06/10 17:08:45;;;;;;;2.15;1.02;;;31.10;43.90;;;;;;10355138;28;20050;-66
2021/06/10 17:13:46;;;;;;;1.35;1.25;;;31.20;43.70;;;;;;10360929;28;20057;-68
2021/06/10 17:18:48;;;;;;;2.80;1.08;;;30.60;44.40;;;;;;10356070;28;20137;-67
2021/06/10 17:23:50;;;;;;;2.33;1.10;;;30.80;44.20;;;;;;10357769;28;20515;-68
2021/06/10 17:28:51;;;;;;;1.20;1.05;;;30.50;44.60;;;;;;10360362;28;20049;-68
2021/06/10 17:33:53;;;;;;;1.48;1.00;;;30.40;44.30;;;;;;10354957;28;20042;-69
2021/06/10 17:38:55;;;;;;;3.05;1.20;;;30.60;44.40;;;;;;10358244;28;20766;-69
2021/06/10 17:43:57;;;;;;;1.58;0.95;;;30.10;45.20;;;;;;10350972;28;20140;-69
2021/06/10 17:48:58;;;;;;;2.83;1.13;;;30.80;45.20;;;;;;10356883;28;20116;-68
2021/06/10 17:54:00;;;;;;;1.45;1.27;;;30.90;45.50;;;;;;10370099;28;20516;-68
2021/06/10 17:59:02;;;;;;;1.40;0.85;;;30.40;44.50;;;;;;10359769;28;20092;-69
2021/06/10 18:04:04;;;;;;;1.92;1.05;;;30.10;44.80;;;;;;10358405;28;20452;-70
2021/06/10 18:09:05;;;;;;;1.10;1.00;;;30.30;44.90;;;;;;10345311;28;20096;-70
2021/06/10 18:14:07;;;;;;;4.40;1.10;;;29.90;45.70;;;;;;10343964;28;20512;-70
2021/06/10 18:19:09;;;;;;;2.50;1.67;;;29.60;46.60;;;;;;10344507;28;20050;-70
2021/06/10 18:24:11;;;;;;;2.45;1.33;;;29.10;47.30;;;;;;10352092;28;20408;-70
2021/06/10 18:29:14;;;;;;;2.95;1.00;;;28.70;49.10;;;;;;10362937;28;20060;-70
2021/06/10 18:34:16;;;;;;;4.40;1.48;;;28.30;50.90;;;;;;10355658;28;20109;-71
2021/06/10 18:39:18;;;;;;;3.72;1.65;;;27.80;51.90;;;;;;10356159;28;20058;-71
2021/06/10 18:44:19;;;;;;;1.70;1.10;;;27.50;54.40;;;;;;10342925;28;20519;-72
2021/06/10 18:49:21;;;;;;;1.85;1.30;;;27.10;53.30;;;;;;10333972;28;20079;-70
2021/06/10 18:54:23;;;;;;;3.83;1.23;;;26.80;54.30;;;;;;10355400;28;20495;-70
2021/06/10 18:59:25;;;;;;;3.75;1.05;;;26.50;55.70;;;;;;10350122;28;20516;-70
2021/06/10 19:04:26;;;;;;;3.65;1.20;;;26.20;56.50;;;;;;10350268;28;20108;-70
2021/06/10 19:09:28;;;;;;;1.95;1.10;;;25.80;57.20;;;;;;10354650;28;20064;-70
2021/06/10 19:14:30;;;;;;;4.10;2.20;;;25.40;57.50;;;;;;10353805;28;20137;-69
2021/06/10 19:19:32;;;;;;;2.83;1.63;;;25.10;57.90;;;;;;10356806;28;20058;-67
2021/06/10 19:24:33;;;;;;;1.95;1.40;;;24.90;58.10;;;;;;10352440;28;20056;-67
2021/06/10 19:29:35;;;;;;;2.65;1.80;;;24.70;59.00;;;;;;10354149;28;20048;-67
2021/06/10 19:39:38;;;;;;;5.65;1.38;;;24.30;62.30;;;;;;10355043;28;20111;-67
2021/06/10 19:44:41;;;;;;;1.83;1.27;;;23.90;61.30;;;;;;10338993;28;20049;-67
2021/06/10 19:49:43;;;;;;;2.45;1.38;;;23.90;62.10;;;;;;10354832;28;20477;-67
2021/06/10 19:54:45;;;;;;;3.05;1.60;;;23.80;63.60;;;;;;10353250;28;20046;-67
2021/06/10 19:59:46;;;;;;;2.42;2.22;;;23.60;66.90;;;;;;10339452;28;20065;-68
2021/06/10 20:04:48;;;;;;;5.95;2.95;;;23.40;67.90;;;;;;10351782;28;20401;-68
2021/06/10 20:09:50;;;;;;;2.72;2.47;;;23.20;68.80;;;;;;10355819;28;20046;-67
2021/06/10 20:15:08;;;;;;;3.58;2.67;;;22.80;70.70;;;;;;10305719;28;20045;-68
2021/06/10 20:20:12;;;;;;;5.45;2.20;;;22.50;72.40;;;;;;10352157;28;20056;-67
2021/06/10 20:25:14;;;;;;;4.57;2.30;;;22.40;73.40;;;;;;10350872;28;20053;-67
2021/06/10 20:30:24;;;;;;;3.28;2.30;;;22.20;74.20;;;;;;10363320;28;20054;-67
2021/06/10 20:35:26;;;;;;;4.13;2.50;;;22.00;75.50;;;;;;10359466;28;20046;-67
2021/06/10 20:40:29;;;;;;;4.95;3.15;;;21.80;77.20;;;;;;10357238;28;20567;-64
2021/06/10 20:45:33;;;;;;;6.55;3.00;;;21.70;78.10;;;;;;10358883;28;20092;-64
2021/06/10 20:50:35;;;;;;;3.17;2.88;;;21.60;80.10;;;;;;10353278;28;20180;-64
2021/06/10 20:55:36;;;;;;;5.15;3.40;;;21.50;81.30;;;;;;10364496;28;20073;-64
2021/06/10 21:00:38;;;;;;;8.63;4.00;;;21.40;83.20;;;;;;10358528;28;20481;-64
2021/06/10 21:05:40;;;;;;;5.97;3.88;;;21.30;85.10;;;;;;10355883;28;20160;-64
2021/06/10 21:10:41;;;;;;;6.60;4.35;;;21.20;86.60;;;;;;10368377;28;20074;-64
2021/06/10 21:15:43;;;;;;;7.03;4.30;;;21.00;90.10;;;;;;10363656;28;20739;-64
2021/06/10 21:20:45;;;;;;;5.70;5.20;;;20.90;91.80;;;;;;10360223;28;20099;-63
2021/06/10 21:25:47;;;;;;;6.22;4.65;;;20.80;93.70;;;;;;10357566;28;20041;-64
2021/06/10 21:30:49;;;;;;;6.03;4.45;;;20.60;94.70;;;;;;10356657;28;20101;-63
2021/06/10 21:35:53;;;;;;;8.73;5.38;;;20.50;96.00;;;;;;10359475;28;20125;-63
2021/06/10 21:40:56;;;;;;;5.55;5.00;;;20.50;98.00;;;;;;10354716;28;20476;-63
2021/06/10 21:45:58;;;;;;;16.38;5.55;;;20.40;98.50;;;;;;10356926;28;20046;-62
2021/06/10 21:51:00;;;;;;;11.50;5.20;;;20.30;99.90;;;;;;10361782;28;20085;-61
2021/06/10 21:56:02;;;;;;;6.45;5.57;;;20.20;99.90;;;;;;10362893;28;20042;-61
2021/06/10 22:01:04;;;;;;;7.65;6.10;;;20.10;99.90;;;;;;10356916;28;20111;-61
2021/06/10 22:06:06;;;;;;;7.93;5.38;;;19.90;99.90;;;;;;10361705;28;20111;-61
2021/06/10 22:11:08;;;;;;;8.48;6.10;;;19.80;99.90;;;;;;10353812;28;20511;-62
2021/06/10 22:16:10;;;;;;;8.50;6.25;;;19.70;99.90;;;;;;10360001;28;20059;-61
2021/06/10 22:21:12;;;;;;;6.85;6.15;;;19.60;99.90;;;;;;10356640;28;20064;-62
2021/06/10 22:26:14;;;;;;;9.10;5.88;;;19.40;99.90;;;;;;10353750;28;20190;-62
2021/06/10 22:31:16;;;;;;;7.70;6.28;;;19.20;99.90;;;;;;10356184;28;20505;-61
2021/06/10 22:36:18;;;;;;;10.10;5.97;;;19.10;99.90;;;;;;10360814;28;20119;-62
2021/06/10 22:41:20;;;;;;;6.75;5.97;;;19.00;99.90;;;;;;10356344;28;20073;-62
2021/06/10 22:46:22;;;;;;;7.07;6.32;;;18.90;99.90;;;;;;10360533;28;20061;-62
2021/06/10 22:51:24;;;;;;;11.82;6.30;;;18.90;99.90;;;;;;10350757;28;20041;-62
2021/06/10 22:56:25;;;;;;;10.75;6.18;;;18.70;99.90;;;;;;10351878;28;20046;-62
2021/06/10 23:01:27;;;;;;;8.95;6.03;;;18.60;99.90;;;;;;10357690;28;20054;-62
2021/06/10 23:06:29;;;;;;;10.93;6.30;;;18.60;99.90;;;;;;10352021;28;20045;-61
2021/06/10 23:11:31;;;;;;;6.72;6.03;;;18.60;99.90;;;;;;10352878;28;20143;-61
2021/06/10 23:16:32;;;;;;;6.55;5.68;;;18.60;99.90;;;;;;10356344;28;20504;-62
2021/06/10 23:21:34;;;;;;;6.70;6.05;;;18.40;99.90;;;;;;10358770;28;20104;-61
2021/06/10 23:26:36;;;;;;;9.85;5.63;;;18.30;99.90;;;;;;10354735;28;20062;-61
2021/06/10 23:31:38;;;;;;;8.15;6.53;;;18.30;99.90;;;;;;10354938;28;20053;-62
2021/06/10 23:36:40;;;;;;;9.52;6.03;;;18.20;99.90;;;;;;10345111;28;20132;-62
2021/06/10 23:41:41;;;;;;;8.40;6.00;;;18.10;99.90;;;;;;10360460;28;20070;-61
2021/06/10 23:46:44;;;;;;;9.02;6.30;;;18.10;99.90;;;;;;10346433;28;20089;-61
2021/06/10 23:51:48;;;;;;;7.72;5.85;;;18.10;99.90;;;;;;10344175;28;20106;-62
2021/06/10 23:56:49;;;;;;;8.65;6.43;;;18.00;99.90;;;;;;10346253;28;20054;-61
